Time;durP1;ratioP1;P1;durP2;ratioP2;P2;SDS_P1;SDS_P2;PMS_P1;PMS_P2;Temp;Humidity;BMP_temperature;BMP_pressure;BME280_temperature;BME280_humidity;BME280_pressure;Samples;Min_cycle;Max_cycle;Signal;HPM_P1;HPM_P2
2023/09/13 00:01:52;;;;;;;;;;;22.20;99.90;;;;;;5073911;28;19912;-73
2023/09/13 00:04:19;;;;;;;;;;;22.20;99.90;;;;;;5091198;28;20316;-73
2023/09/13 00:06:45;;;;;;;;;;;22.20;99.90;;;;;;5091470;28;19914;-72
2023/09/13 00:09:10;;;;;;;;;;;22.20;99.90;;;;;;5090793;28;19908;-72
2023/09/13 00:11:36;;;;;;;;;;;22.20;99.90;;;;;;5091055;28;19908;-72
2023/09/13 00:14:02;;;;;;;;;;;22.20;99.90;;;;;;5091158;28;19954;-73
2023/09/13 00:16:28;;;;;;;;;;;22.20;99.90;;;;;;5091244;28;19912;-72
2023/09/13 00:18:54;;;;;;;;;;;22.20;99.90;;;;;;5072527;28;19912;-72
2023/09/13 00:21:20;;;;;;;;;;;22.10;99.90;;;;;;5091235;28;19908;-73
2023/09/13 00:23:47;;;;;;;;;;;22.10;99.90;;;;;;5074787;28;20310;-72
2023/09/13 00:26:14;;;;;;;;;;;22.10;99.90;;;;;;5076609;28;20384;-73
2023/09/13 00:28:39;;;;;;;;;;;22.10;99.90;;;;;;5095591;28;19908;-73
2023/09/13 00:31:08;;;;;;;;;;;22.30;99.90;;;;;;5094979;28;19908;-72
2023/09/13 00:33:34;;;;;;;;;;;22.10;99.90;;;;;;5095168;28;20018;-72
2023/09/13 00:36:00;;;;;;;;;;;22.20;99.90;;;;;;5094944;28;20343;-72
2023/09/13 00:38:26;;;;;;;;;;;22.10;99.90;;;;;;5094445;28;19920;-72
2023/09/13 00:40:52;;;;;;;;;;;22.10;99.90;;;;;;5094776;28;19908;-72
2023/09/13 00:43:18;;;;;;;;;;;22.10;99.90;;;;;;5076444;28;19908;-72
2023/09/13 00:45:46;;;;;;;;;;;22.10;99.90;;;;;;5076328;28;19980;-73
2023/09/13 00:48:11;;;;;;;;;;;22.10;99.90;;;;;;5076173;28;19984;-72
2023/09/13 00:50:37;;;;;;;;;;;22.10;99.90;;;;;;5094939;28;19908;-73
2023/09/13 00:53:04;;;;;;;;;;;22.10;99.90;;;;;;5094813;28;19915;-72
2023/09/13 00:55:31;;;;;;;;;;;22.10;99.90;;;;;;5094590;28;19915;-72
2023/09/13 00:57:57;;;;;;;;;;;22.10;99.90;;;;;;5094434;28;20326;-72
2023/09/13 01:00:24;;;;;;;;;;;22.10;99.90;;;;;;5094296;28;19920;-72
2023/09/13 01:02:50;;;;;;;;;;;22.10;99.90;;;;;;5094332;28;19927;-72
2023/09/13 01:05:16;;;;;;;;;;;22.10;99.90;;;;;;5094196;28;19915;-73
2023/09/13 01:07:42;;;;;;;;;;;22.20;99.90;;;;;;5094180;28;19908;-73
2023/09/13 01:10:09;;;;;;;;;;;22.20;99.90;;;;;;5094245;28;20265;-73
2023/09/13 01:12:35;;;;;;;;;;;22.30;99.90;;;;;;5094060;28;19908;-72
2023/09/13 01:15:02;;;;;;;;;;;22.30;99.90;;;;;;5094435;28;19915;-72
2023/09/13 01:17:33;;;;;;;;;;;22.30;99.90;;;;;;5093962;28;19973;-73
2023/09/13 01:20:07;;;;;;;;;;;22.40;99.90;;;;;;5093868;28;19916;-72
2023/09/13 01:22:53;;;;;;;;;;;22.40;99.90;;;;;;5094161;28;19912;-71
2023/09/13 01:25:38;;;;;;;;;;;22.40;99.90;;;;;;5093532;28;20389;-72
2023/09/13 01:28:09;;;;;;;;;;;22.40;99.90;;;;;;5093924;28;20011;-71
2023/09/13 01:30:36;;;;;;;;;;;22.50;99.90;;;;;;5093760;28;19908;-72
2023/09/13 01:33:02;;;;;;;;;;;22.40;99.90;;;;;;5094059;28;19915;-72
2023/09/13 01:35:28;;;;;;;;;;;22.40;99.90;;;;;;5093707;28;19912;-72
2023/09/13 01:37:54;;;;;;;;;;;22.40;99.90;;;;;;5093592;28;19960;-72
2023/09/13 01:40:21;;;;;;;;;;;22.40;99.90;;;;;;5093468;28;19923;-72
2023/09/13 01:42:47;;;;;;;;;;;22.40;99.90;;;;;;5093700;28;19915;-72
2023/09/13 01:45:14;;;;;;;;;;;22.40;99.90;;;;;;5093748;28;19912;-72
2023/09/13 01:47:42;;;;;;;;;;;22.40;99.90;;;;;;5093668;28;19961;-71
2023/09/13 01:50:08;;;;;;;;;;;22.40;99.90;;;;;;5093789;28;19912;-72
2023/09/13 01:52:34;;;;;;;;;;;22.40;99.90;;;;;;5075116;28;19939;-72
2023/09/13 01:55:04;;;;;;;;;;;22.50;99.90;;;;;;5093518;28;19952;-72
2023/09/13 01:57:30;;;;;;;;;;;22.50;99.90;;;;;;5093300;28;19908;-71
2023/09/13 01:59:55;;;;;;;;;;;22.50;99.90;;;;;;5093160;28;20444;-72
2023/09/13 02:02:21;;;;;;;;;;;22.60;99.90;;;;;;5093148;28;19916;-73
2023/09/13 02:04:47;;;;;;;;;;;22.60;99.90;;;;;;5093490;28;19908;-72
2023/09/13 02:07:14;;;;;;;;;;;22.60;99.90;;;;;;5093266;28;20313;-72
2023/09/13 02:09:40;;;;;;;;;;;22.60;99.90;;;;;;5092783;28;19908;-72
2023/09/13 02:12:06;;;;;;;;;;;22.50;99.90;;;;;;5093045;28;19915;-72
2023/09/13 02:14:32;;;;;;;;;;;22.50;99.90;;;;;;5092936;28;19944;-72
2023/09/13 02:16:59;;;;;;;;;;;22.50;99.90;;;;;;5092999;28;19940;-72
2023/09/13 02:19:25;;;;;;;;;;;22.50;99.90;;;;;;5074442;28;19935;-72
2023/09/13 02:21:51;;;;;;;;;;;22.50;99.90;;;;;;5092823;28;19949;-72
2023/09/13 02:24:17;;;;;;;;;;;22.50;99.90;;;;;;5092747;28;19908;-73
2023/09/13 02:26:43;;;;;;;;;;;22.40;99.90;;;;;;5074478;28;20011;-73
2023/09/13 02:29:09;;;;;;;;;;;22.30;99.90;;;;;;5074279;28;19934;-72
2023/09/13 02:31:34;;;;;;;;;;;22.30;99.90;;;;;;5074189;28;19938;-73
2023/09/13 02:34:00;;;;;;;;;;;22.30;99.90;;;;;;5092587;28;19969;-73
2023/09/13 02:36:26;;;;;;;;;;;22.30;99.90;;;;;;5092218;28;20024;-72
2023/09/13 02:38:52;;;;;;;;;;;22.30;99.90;;;;;;5092245;28;19920;-73
2023/09/13 02:41:18;;;;;;;;;;;22.20;99.90;;;;;;5092280;28;19915;-73
2023/09/13 02:43:44;;;;;;;;;;;22.20;99.90;;;;;;5092634;28;20409;-72
2023/09/13 02:46:10;;;;;;;;;;;22.10;99.90;;;;;;5091843;28;20049;-72
2023/09/13 02:48:36;;;;;;;;;;;22.00;99.90;;;;;;5092017;28;19908;-72
2023/09/13 02:51:02;;;;;;;;;;;22.00;99.90;;;;;;5092335;28;19908;-73
2023/09/13 02:53:28;;;;;;;;;;;22.00;99.90;;;;;;5092013;28;20379;-72
2023/09/13 02:56:02;;;;;;;;;;;21.90;99.90;;;;;;5091984;28;19908;-72
2023/09/13 02:58:28;;;;;;;;;;;21.90;99.90;;;;;;5092926;28;19971;-72
2023/09/13 03:00:56;;;;;;;;;;;21.90;99.90;;;;;;5092774;28;19947;-72
2023/09/13 03:03:22;;;;;;;;;;;21.90;99.90;;;;;;5092884;28;19915;-73
2023/09/13 03:05:48;;;;;;;;;;;21.90;99.90;;;;;;5092510;28;19912;-72
2023/09/13 03:08:14;;;;;;;;;;;21.90;99.90;;;;;;5074173;28;20364;-72
2023/09/13 03:10:40;;;;;;;;;;;21.70;99.90;;;;;;5073790;28;19950;-72
2023/09/13 03:13:06;;;;;;;;;;;21.60;99.90;;;;;;5092685;28;20387;-72
2023/09/13 03:15:32;;;;;;;;;;;21.60;99.90;;;;;;5073949;28;19908;-72
2023/09/13 03:17:58;;;;;;;;;;;21.50;99.90;;;;;;5092370;28;20271;-72
2023/09/13 03:20:24;;;;;;;;;;;21.50;99.90;;;;;;5092197;28;19924;-73
2023/09/13 03:22:50;;;;;;;;;;;21.50;99.90;;;;;;5092253;28;19908;-72
2023/09/13 03:25:16;;;;;;;;;;;21.60;99.90;;;;;;5092742;28;19908;-72
2023/09/13 03:27:42;;;;;;;;;;;21.60;99.90;;;;;;5093250;28;19908;-72
2023/09/13 03:30:07;;;;;;;;;;;21.50;99.90;;;;;;5092769;28;19924;-71
2023/09/13 03:32:33;;;;;;;;;;;21.50;99.90;;;;;;5093289;28;19911;-72
2023/09/13 03:34:59;;;;;;;;;;;21.50;99.90;;;;;;5092925;28;19908;-72
2023/09/13 03:37:25;;;;;;;;;;;21.50;99.90;;;;;;5092839;28;20275;-72
2023/09/13 03:39:51;;;;;;;;;;;21.50;99.90;;;;;;5092221;28;19920;-72
2023/09/13 03:42:17;;;;;;;;;;;21.60;99.90;;;;;;5092608;28;19915;-71
2023/09/13 03:44:42;;;;;;;;;;;21.60;99.90;;;;;;5093011;28;19923;-73
2023/09/13 03:47:08;;;;;;;;;;;21.60;99.90;;;;;;5092424;28;19908;-72
2023/09/13 03:49:34;;;;;;;;;;;21.60;99.90;;;;;;5092910;28;20213;-72
2023/09/13 03:52:01;;;;;;;;;;;21.60;99.90;;;;;;5092387;28;19908;-72
2023/09/13 03:54:27;;;;;;;;;;;21.60;99.90;;;;;;5074171;28;19912;-73
2023/09/13 03:56:52;;;;;;;;;;;21.60;99.90;;;;;;5092291;28;20289;-72
2023/09/13 03:59:18;;;;;;;;;;;21.60;99.90;;;;;;5091457;28;19920;-72
2023/09/13 04:01:44;;;;;;;;;;;21.60;99.90;;;;;;5092693;28;20267;-72
2023/09/13 04:04:10;;;;;;;;;;;21.70;99.90;;;;;;5092307;28;19909;-72
2023/09/13 04:06:36;;;;;;;;;;;21.70;99.90;;;;;;5092234;28;19974;-72
2023/09/13 04:09:06;;;;;;;;;;;21.70;99.90;;;;;;5092595;28;19931;-72
2023/09/13 04:11:32;;;;;;;;;;;21.70;99.90;;;;;;5073919;28;19908;-72
2023/09/13 04:13:58;;;;;;;;;;;21.80;99.90;;;;;;5092190;28;19908;-72
2023/09/13 04:16:23;;;;;;;;;;;21.80;99.90;;;;;;5074077;28;19912;-72
2023/09/13 04:18:50;;;;;;;;;;;21.80;99.90;;;;;;5092583;28;19912;-71
2023/09/13 04:21:16;;;;;;;;;;;21.80;99.90;;;;;;5093069;28;19970;-72
2023/09/13 04:23:41;;;;;;;;;;;21.80;99.90;;;;;;5093067;28;19912;-72
2023/09/13 04:26:07;;;;;;;;;;;21.70;99.90;;;;;;5074326;28;20325;-72
2023/09/13 04:28:33;;;;;;;;;;;21.80;99.90;;;;;;5093058;28;19912;-72
2023/09/13 04:30:59;;;;;;;;;;;21.80;99.90;;;;;;5092604;28;19908;-73
2023/09/13 04:33:43;;;;;;;;;;;21.70;99.90;;;;;;5092525;28;19961;-72
2023/09/13 04:36:09;;;;;;;;;;;21.70;99.90;;;;;;5074245;28;19957;-71
2023/09/13 04:38:35;;;;;;;;;;;21.70;99.90;;;;;;5070635;28;19925;-72
2023/09/13 04:41:03;;;;;;;;;;;21.70;99.90;;;;;;5071983;28;20253;-72
2023/09/13 04:43:29;;;;;;;;;;;21.70;99.90;;;;;;5072183;28;19909;-72
2023/09/13 04:45:55;;;;;;;;;;;21.60;99.90;;;;;;5072218;28;19924;-72
2023/09/13 04:48:20;;;;;;;;;;;21.70;99.90;;;;;;5071994;28;19952;-72
2023/09/13 04:50:46;;;;;;;;;;;21.60;99.90;;;;;;5072004;28;19908;-72
2023/09/13 04:53:12;;;;;;;;;;;21.60;99.90;;;;;;5071885;28;19924;-72
2023/09/13 04:55:40;;;;;;;;;;;21.70;99.90;;;;;;5070274;28;19913;-73
2023/09/13 04:58:06;;;;;;;;;;;21.70;99.90;;;;;;5071784;28;19971;-72
2023/09/13 05:00:31;;;;;;;;;;;21.70;99.90;;;;;;5070139;28;20314;-72
2023/09/13 05:02:57;;;;;;;;;;;21.70;99.90;;;;;;5070116;28;19912;-72
2023/09/13 05:05:23;;;;;;;;;;;21.70;99.90;;;;;;5071432;28;19909;-72
2023/09/13 05:07:49;;;;;;;;;;;21.70;99.90;;;;;;5071253;28;20105;-72
2023/09/13 05:10:15;;;;;;;;;;;21.70;99.90;;;;;;5073495;28;19943;-73
2023/09/13 05:12:40;;;;;;;;;;;21.70;99.90;;;;;;5073585;28;19962;-72
2023/09/13 05:15:06;;;;;;;;;;;21.80;99.90;;;;;;5074914;28;19908;-72
2023/09/13 05:17:32;;;;;;;;;;;21.80;99.90;;;;;;5076136;28;19912;-72
2023/09/13 05:19:58;;;;;;;;;;;21.80;99.90;;;;;;5075537;28;20019;-72
2023/09/13 05:22:24;;;;;;;;;;;21.90;99.90;;;;;;5075734;28;19913;-72
2023/09/13 05:24:50;;;;;;;;;;;21.90;99.90;;;;;;5074224;28;19935;-73
2023/09/13 05:27:16;;;;;;;;;;;22.00;99.90;;;;;;5075372;28;19915;-73
2023/09/13 05:29:41;;;;;;;;;;;22.00;99.90;;;;;;5074353;28;19908;-72
2023/09/13 05:32:07;;;;;;;;;;;22.00;99.90;;;;;;5074417;28;19919;-73
2023/09/13 05:34:33;;;;;;;;;;;22.40;99.90;;;;;;5074343;28;19908;-72
2023/09/13 05:36:59;;;;;;;;;;;23.20;99.90;;;;;;5074182;28;20275;-74
2023/09/13 05:39:26;;;;;;;;;;;23.90;99.90;;;;;;5072567;28;19920;-73
2023/09/13 05:41:54;;;;;;;;;;;24.60;99.90;;;;;;5073842;28;19915;-74
2023/09/13 05:44:24;;;;;;;;;;;24.90;99.90;;;;;;5072289;28;19978;-73
2023/09/13 05:46:53;;;;;;;;;;;25.40;99.90;;;;;;5074016;28;19988;-73
2023/09/13 05:49:19;;;;;;;;;;;25.40;99.90;;;;;;5073313;28;19955;-72
2023/09/13 05:51:48;;;;;;;;;;;25.90;99.90;;;;;;5073151;28;19935;-73
2023/09/13 05:54:14;;;;;;;;;;;25.70;99.90;;;;;;5073887;28;19920;-75
2023/09/13 05:56:41;;;;;;;;;;;25.30;99.90;;;;;;5073847;28;20012;-74
2023/09/13 05:59:08;;;;;;;;;;;25.30;99.90;;;;;;5073699;28;19986;-73
2023/09/13 06:01:33;;;;;;;;;;;25.60;99.90;;;;;;5073652;28;19961;-74
2023/09/13 06:04:01;;;;;;;;;;;26.40;99.90;;;;;;5072414;28;20000;-73
2023/09/13 06:06:27;;;;;;;;;;;27.30;99.90;;;;;;5073922;28;19995;-74
2023/09/13 06:08:53;;;;;;;;;;;27.80;99.90;;;;;;5074199;28;19908;-76
2023/09/13 06:11:19;;;;;;;;;;;28.40;99.90;;;;;;5072906;28;20066;-74
2023/09/13 06:13:45;;;;;;;;;;;28.80;99.90;;;;;;5074187;28;19908;-75
2023/09/13 06:16:11;;;;;;;;;;;28.70;99.90;;;;;;5074885;28;19908;-74
2023/09/13 06:18:36;;;;;;;;;;;28.80;99.90;;;;;;5074793;28;20269;-73
2023/09/13 06:21:03;;;;;;;;;;;29.00;99.90;;;;;;5072286;28;19912;-74
2023/09/13 06:23:39;;;;;;;;;;;29.70;99.90;;;;;;5074924;28;20462;-73
2023/09/13 06:26:05;;;;;;;;;;;29.30;99.90;;;;;;5074145;28;20002;-75
2023/09/13 06:28:31;;;;;;;;;;;29.00;99.90;;;;;;5074693;28;20050;-74
2023/09/13 06:30:58;;;;;;;;;;;29.90;99.90;;;;;;5074050;28;19916;-73
2023/09/13 06:33:24;;;;;;;;;;;31.20;99.90;;;;;;5073998;28;20438;-73
2023/09/13 06:35:50;;;;;;;;;;;33.30;99.90;;;;;;5073693;28;19989;-73
2023/09/13 06:38:16;;;;;;;;;;;34.00;99.90;;;;;;5080509;28;19916;-75
2023/09/13 06:40:47;;;;;;;;;;;33.90;99.90;;;;;;5094265;28;19912;-75
2023/09/13 06:43:14;;;;;;;;;;;33.80;99.90;;;;;;5094318;28;19908;-74
2023/09/13 06:45:41;;;;;;;;;;;34.00;99.90;;;;;;5094060;28;19995;-73
2023/09/13 06:48:07;;;;;;;;;;;34.40;99.90;;;;;;5093662;28;19913;-75
2023/09/13 06:50:33;;;;;;;;;;;36.40;99.90;;;;;;5093922;28;20310;-76
2023/09/13 06:52:59;;;;;;;;;;;37.30;99.90;;;;;;5075840;28;19916;-75
2023/09/13 06:55:24;;;;;;;;;;;37.80;99.90;;;;;;5094436;28;19938;-74
2023/09/13 06:57:51;;;;;;;;;;;37.70;99.30;;;;;;5094035;28;19917;-73
2023/09/13 07:00:17;;;;;;;;;;;37.60;97.60;;;;;;5075285;28;19970;-74
2023/09/13 07:02:43;;;;;;;;;;;38.10;97.20;;;;;;5094079;28;20006;-74
2023/09/13 07:05:09;;;;;;;;;;;37.80;96.60;;;;;;5075308;28;19955;-75
2023/09/13 07:07:34;;;;;;;;;;;39.10;95.90;;;;;;5094132;28;20004;-74
2023/09/13 07:10:03;;;;;;;;;;;40.10;94.30;;;;;;5093672;28;20303;-76
2023/09/13 07:12:28;;;;;;;;;;;39.80;92.70;;;;;;5093966;28;20349;-76
2023/09/13 07:14:54;;;;;;;;;;;39.90;91.70;;;;;;5093990;28;19958;-75
2023/09/13 07:17:20;;;;;;;;;;;39.90;90.50;;;;;;5093913;28;19995;-75
2023/09/13 07:19:46;;;;;;;;;;;39.70;90.40;;;;;;5093540;28;20267;-77
2023/09/13 07:22:12;;;;;;;;;;;39.00;90.70;;;;;;5093877;28;19908;-81
2023/09/13 07:24:37;;;;;;;;;;;39.00;91.90;;;;;;5094281;28;19934;-80
2023/09/13 07:27:03;;;;;;;;;;;37.80;91.80;;;;;;5093902;28;19908;-78
2023/09/13 07:29:29;;;;;;;;;;;37.40;91.80;;;;;;5093940;28;20249;-77
2023/09/13 07:31:55;;;;;;;;;;;36.40;92.20;;;;;;5093480;28;20368;-76
2023/09/13 07:34:21;;;;;;;;;;;35.20;93.30;;;;;;5093837;28;19981;-77
2023/09/13 07:36:46;;;;;;;;;;;34.50;93.60;;;;;;5093535;28;19935;-74
2023/09/13 07:39:12;;;;;;;;;;;34.50;93.50;;;;;;5093194;28;19973;-73
2023/09/13 07:41:38;;;;;;;;;;;33.80;93.60;;;;;;5092950;28;19908;-74
2023/09/13 07:44:04;;;;;;;;;;;33.40;93.80;;;;;;5093447;28;20335;-75
2023/09/13 07:46:30;;;;;;;;;;;33.00;93.40;;;;;;5093146;28;20413;-76
2023/09/13 07:48:56;;;;;;;;;;;32.80;94.10;;;;;;5092863;28;19928;-75
2023/09/13 07:51:22;;;;;;;;;;;32.60;94.50;;;;;;5092843;28;19915;-74
2023/09/13 07:53:47;;;;;;;;;;;32.30;94.70;;;;;;5075067;28;20375;-74
2023/09/13 07:56:14;;;;;;;;;;;32.40;95.10;;;;;;5092707;28;19908;-76
2023/09/13 07:58:41;;;;;;;;;;;32.20;95.00;;;;;;5074141;28;20375;-74
2023/09/13 08:01:06;;;;;;;;;;;32.40;94.70;;;;;;5093166;28;19909;-74
2023/09/13 08:03:33;;;;;;;;;;;32.50;94.40;;;;;;5074460;28;20240;-77
2023/09/13 08:06:00;;;;;;;;;;;32.60;94.20;;;;;;5093762;28;19962;-79
2023/09/13 08:08:26;;;;;;;;;;;32.40;94.70;;;;;;5094146;28;20446;-75
2023/09/13 08:10:52;;;;;;;;;;;32.80;95.10;;;;;;5093056;28;19912;-76
2023/09/13 08:13:21;;;;;;;;;;;33.20;94.70;;;;;;5093760;28;20368;-77
2023/09/13 08:15:47;;;;;;;;;;;33.10;93.70;;;;;;5093035;28;19915;-76
2023/09/13 08:18:13;;;;;;;;;;;33.00;93.20;;;;;;5093089;28;19952;-74
2023/09/13 08:20:39;;;;;;;;;;;33.20;94.60;;;;;;5092690;28;19920;-73
2023/09/13 08:23:04;;;;;;;;;;;33.50;98.20;;;;;;5074640;28;20045;-75
2023/09/13 08:25:30;;;;;;;;;;;33.40;99.90;;;;;;5093254;28;19908;-75
2023/09/13 08:27:56;;;;;;;;;;;33.30;99.90;;;;;;5093078;28;20016;-74
2023/09/13 08:30:22;;;;;;;;;;;33.30;99.90;;;;;;5093224;28;19999;-75
2023/09/13 08:32:48;;;;;;;;;;;32.90;99.90;;;;;;5093056;28;19915;-73
2023/09/13 08:35:13;;;;;;;;;;;32.60;99.90;;;;;;5092328;28;19935;-74
2023/09/13 08:37:39;;;;;;;;;;;32.20;99.90;;;;;;5092671;28;19908;-75
2023/09/13 08:40:06;;;;;;;;;;;32.50;99.90;;;;;;5092612;28;19961;-75
2023/09/13 08:42:33;;;;;;;;;;;32.20;99.90;;;;;;5092306;28;19912;-74
2023/09/13 08:44:59;;;;;;;;;;;32.20;99.90;;;;;;5075721;28;20341;-74
2023/09/13 08:47:29;;;;;;;;;;;32.30;99.90;;;;;;5096086;28;19986;-74
2023/09/13 08:49:57;;;;;;;;;;;31.80;99.90;;;;;;5077120;28;20020;-74
2023/09/13 08:52:29;;;;;;;;;;;31.50;99.90;;;;;;5095744;28;20308;-74
2023/09/13 08:54:56;;;;;;;;;;;31.50;99.90;;;;;;5096082;28;19920;-73
2023/09/13 08:57:23;;;;;;;;;;;31.50;99.90;;;;;;5095384;28;19915;-74
2023/09/13 08:59:49;;;;;;;;;;;31.80;99.90;;;;;;5076730;28;19916;-75
2023/09/13 09:02:17;;;;;;;;;;;31.80;99.90;;;;;;5095496;28;19915;-73
2023/09/13 09:04:43;;;;;;;;;;;31.60;99.90;;;;;;5095979;28;20256;-74
2023/09/13 09:07:10;;;;;;;;;;;30.90;99.90;;;;;;5077259;28;19946;-74
2023/09/13 09:09:36;;;;;;;;;;;30.70;99.90;;;;;;5077401;28;19908;-74
2023/09/13 09:12:04;;;;;;;;;;;30.80;99.90;;;;;;5095097;28;19908;-74
2023/09/13 09:14:33;;;;;;;;;;;30.80;99.90;;;;;;5095800;28;19908;-73
2023/09/13 09:16:59;;;;;;;;;;;30.80;99.90;;;;;;5076648;28;19908;-73
2023/09/13 09:19:26;;;;;;;;;;;30.70;99.90;;;;;;5095019;28;20019;-73
2023/09/13 09:21:52;;;;;;;;;;;30.50;99.90;;;;;;5095270;28;19965;-75
2023/09/13 09:24:24;;;;;;;;;;;30.40;99.90;;;;;;5095574;28;19909;-74
2023/09/13 09:26:50;;;;;;;;;;;30.50;99.90;;;;;;5096048;28;19954;-76
2023/09/13 09:29:32;;;;;;;;;;;30.60;99.90;;;;;;5077506;28;19916;-74
2023/09/13 09:31:58;;;;;;;;;;;30.50;99.90;;;;;;5095319;28;19909;-73
2023/09/13 09:34:29;;;;;;;;;;;30.70;99.90;;;;;;5095119;28;20490;-73
2023/09/13 09:37:01;;;;;;;;;;;30.50;99.90;;;;;;5095044;28;20367;-73
2023/09/13 09:39:27;;;;;;;;;;;30.20;99.90;;;;;;5094503;28;20021;-74
2023/09/13 09:41:57;;;;;;;;;;;30.10;99.90;;;;;;5094564;28;19954;-72
2023/09/13 09:44:27;;;;;;;;;;;30.30;99.90;;;;;;5076087;28;19951;-73
2023/09/13 09:46:52;;;;;;;;;;;30.40;99.90;;;;;;5095234;28;19915;-73
2023/09/13 09:49:19;;;;;;;;;;;30.00;99.90;;;;;;5094562;28;19908;-73
2023/09/13 09:51:44;;;;;;;;;;;30.10;99.90;;;;;;5094279;28;19946;-73
2023/09/13 09:54:10;;;;;;;;;;;30.10;99.90;;;;;;5094359;28;19960;-74
2023/09/13 09:56:36;;;;;;;;;;;30.20;99.90;;;;;;5094034;28;19908;-74
2023/09/13 09:59:03;;;;;;;;;;;29.90;99.90;;;;;;5094570;28;19969;-73
2023/09/13 10:01:29;;;;;;;;;;;30.00;99.90;;;;;;5094177;28;19912;-72
2023/09/13 10:03:59;;;;;;;;;;;30.10;99.90;;;;;;5094039;28;19919;-73
2023/09/13 10:06:25;;;;;;;;;;;30.00;99.90;;;;;;5093812;28;20261;-73
2023/09/13 10:08:51;;;;;;;;;;;30.00;99.90;;;;;;5094018;28;19952;-73
2023/09/13 10:11:17;;;;;;;;;;;29.90;99.90;;;;;;5093971;28;19979;-74
2023/09/13 10:13:45;;;;;;;;;;;30.20;99.90;;;;;;5094372;28;20439;-73
2023/09/13 10:16:11;;;;;;;;;;;30.00;99.90;;;;;;5075898;28;19912;-73
2023/09/13 10:18:41;;;;;;;;;;;30.00;99.90;;;;;;5075988;28;19908;-72
2023/09/13 10:21:08;;;;;;;;;;;30.30;99.90;;;;;;5093826;28;19912;-73
2023/09/13 10:23:39;;;;;;;;;;;30.40;99.90;;;;;;5093996;28;19908;-73
2023/09/13 10:26:06;;;;;;;;;;;30.30;99.90;;;;;;5093735;28;20146;-74
2023/09/13 10:28:35;;;;;;;;;;;30.20;99.90;;;;;;5093591;28;19908;-73
2023/09/13 10:31:03;;;;;;;;;;;30.20;99.90;;;;;;5093479;28;19908;-73
2023/09/13 10:33:31;;;;;;;;;;;30.20;99.90;;;;;;5093056;28;19995;-73
2023/09/13 10:35:59;;;;;;;;;;;30.20;99.90;;;;;;5093203;28;20067;-72
2023/09/13 10:38:43;;;;;;;;;;;30.40;99.90;;;;;;5092761;28;20248;-73
2023/09/13 10:41:10;;;;;;;;;;;30.30;99.90;;;;;;5074647;28;19985;-72
2023/09/13 10:43:39;;;;;;;;;;;30.50;99.90;;;;;;5074493;28;19916;-72
2023/09/13 10:46:05;;;;;;;;;;;30.60;99.90;;;;;;5092546;28;19990;-72
2023/09/13 10:48:31;;;;;;;;;;;30.70;99.90;;;;;;5092791;28;19942;-71
2023/09/13 10:50:58;;;;;;;;;;;30.50;99.90;;;;;;5094139;28;20397;-71
2023/09/13 10:53:25;;;;;;;;;;;30.50;99.90;;;;;;5093880;28;19916;-72
2023/09/13 10:55:52;;;;;;;;;;;30.60;99.90;;;;;;5093412;28;19908;-73
2023/09/13 10:58:29;;;;;;;;;;;30.70;99.90;;;;;;5093556;28;19934;-73
2023/09/13 11:00:57;;;;;;;;;;;30.60;99.90;;;;;;5093741;28;19977;-74
2023/09/13 11:03:24;;;;;;;;;;;30.50;99.90;;;;;;5093592;28;19909;-72
2023/09/13 11:05:52;;;;;;;;;;;30.50;99.90;;;;;;5093792;28;19908;-74
2023/09/13 11:08:26;;;;;;;;;;;30.40;99.90;;;;;;5092662;28;20036;-72
2023/09/13 11:10:53;;;;;;;;;;;30.30;99.90;;;;;;5093303;28;19998;-72
2023/09/13 11:13:18;;;;;;;;;;;30.30;99.90;;;;;;5093768;28;19927;-72
2023/09/13 11:15:48;;;;;;;;;;;30.40;99.90;;;;;;5093213;28;19912;-74
2023/09/13 11:18:15;;;;;;;;;;;30.40;99.90;;;;;;5093734;28;20010;-72
2023/09/13 11:20:42;;;;;;;;;;;30.70;99.90;;;;;;5093551;28;19970;-72
2023/09/13 11:23:14;;;;;;;;;;;30.70;99.90;;;;;;5093546;28;19967;-72
2023/09/13 11:25:43;;;;;;;;;;;31.00;99.90;;;;;;5093541;28;19940;-71
2023/09/13 11:28:27;;;;;;;;;;;31.20;99.90;;;;;;5094136;28;19999;-71
2023/09/13 11:30:55;;;;;;;;;;;31.10;99.90;;;;;;5093205;28;19957;-71
2023/09/13 11:33:22;;;;;;;;;;;31.00;99.90;;;;;;5093303;28;19908;-70
2023/09/13 11:35:49;;;;;;;;;;;30.80;99.90;;;;;;5093741;28;19909;-71
2023/09/13 11:38:16;;;;;;;;;;;30.70;99.90;;;;;;5093080;28;19924;-71
2023/09/13 11:40:48;;;;;;;;;;;30.90;99.90;;;;;;5074745;28;19970;-72
2023/09/13 11:43:25;;;;;;;;;;;31.10;99.90;;;;;;5093520;28;19954;-71
2023/09/13 11:45:52;;;;;;;;;;;30.90;99.90;;;;;;5074838;28;19955;-71
2023/09/13 11:48:41;;;;;;;;;;;30.90;99.90;;;;;;5092622;28;19908;-71
2023/09/13 11:51:11;;;;;;;;;;;30.90;99.90;;;;;;5074195;28;20079;-71
2023/09/13 11:53:37;;;;;;;;;;;30.80;99.90;;;;;;5074509;28;19989;-71
2023/09/13 11:56:03;;;;;;;;;;;30.60;99.90;;;;;;5092481;28;19915;-71
2023/09/13 11:58:33;;;;;;;;;;;30.70;99.90;;;;;;5092491;28;19963;-71
2023/09/13 12:01:00;;;;;;;;;;;30.80;99.90;;;;;;5092101;28;19912;-70
2023/09/13 12:03:29;;;;;;;;;;;30.30;99.90;;;;;;5092087;28;19919;-71
2023/09/13 12:05:56;;;;;;;;;;;30.10;99.90;;;;;;5074196;28;19912;-70
2023/09/13 12:08:29;;;;;;;;;;;30.30;99.90;;;;;;5092904;28;20332;-70
2023/09/13 12:10:56;;;;;;;;;;;30.20;99.90;;;;;;5092233;28;19914;-71
2023/09/13 12:13:40;;;;;;;;;;;30.30;99.90;;;;;;5092580;28;20283;-71
2023/09/13 12:16:06;;;;;;;;;;;30.30;99.90;;;;;;5092758;28;19981;-72
2023/09/13 12:18:34;;;;;;;;;;;30.40;99.90;;;;;;5092478;28;19959;-70
2023/09/13 12:21:00;;;;;;;;;;;30.80;99.90;;;;;;5092576;28;19912;-72
2023/09/13 12:23:26;;;;;;;;;;;30.40;99.90;;;;;;5074658;28;19915;-72
2023/09/13 12:25:55;;;;;;;;;;;30.30;99.90;;;;;;5074411;28;19919;-72
2023/09/13 12:28:28;;;;;;;;;;;30.20;99.90;;;;;;5092761;28;19975;-71
2023/09/13 12:30:54;;;;;;;;;;;30.30;99.90;;;;;;5093185;28;19948;-71
2023/09/13 12:33:21;;;;;;;;;;;30.50;99.90;;;;;;5093141;28;19978;-72
2023/09/13 12:35:47;;;;;;;;;;;30.50;99.90;;;;;;5092732;28;19912;-71
2023/09/13 12:38:13;;;;;;;;;;;30.20;99.90;;;;;;5092784;28;19922;-71
2023/09/13 12:40:39;;;;;;;;;;;30.20;99.90;;;;;;5093601;28;20045;-72
2023/09/13 12:43:05;;;;;;;;;;;30.30;99.90;;;;;;5092970;28;19920;-71
2023/09/13 12:45:31;;;;;;;;;;;30.20;99.90;;;;;;5074951;28;20313;-71
2023/09/13 12:47:57;;;;;;;;;;;30.20;99.90;;;;;;5075034;28;19926;-71
2023/09/13 12:50:22;;;;;;;;;;;30.20;99.90;;;;;;5092794;28;19908;-72
2023/09/13 12:52:52;;;;;;;;;;;30.30;99.90;;;;;;5092542;28;19908;-71
2023/09/13 12:55:17;;;;;;;;;;;30.50;99.90;;;;;;5092570;28;19930;-71
2023/09/13 12:57:43;;;;;;;;;;;30.40;99.90;;;;;;5092424;28;20360;-71
2023/09/13 13:00:12;;;;;;;;;;;30.40;99.90;;;;;;5092615;28;19916;-71
2023/09/13 13:02:39;;;;;;;;;;;30.30;99.90;;;;;;5092489;28;20350;-70
2023/09/13 13:05:05;;;;;;;;;;;30.00;99.90;;;;;;5074289;28;19958;-72
2023/09/13 13:07:33;;;;;;;;;;;30.20;99.90;;;;;;5074276;28;19908;-72
2023/09/13 13:10:03;;;;;;;;;;;30.30;99.90;;;;;;5092555;28;19912;-72
2023/09/13 13:12:29;;;;;;;;;;;30.50;99.90;;;;;;5092679;28;19948;-72
2023/09/13 13:14:55;;;;;;;;;;;30.30;99.90;;;;;;5092401;28;19966;-72
2023/09/13 13:17:24;;;;;;;;;;;30.20;99.90;;;;;;5092972;28;19908;-72
2023/09/13 13:19:51;;;;;;;;;;;30.20;99.90;;;;;;5092588;28;19963;-72
2023/09/13 13:22:17;;;;;;;;;;;30.30;99.90;;;;;;5092725;28;19908;-72
2023/09/13 13:24:46;;;;;;;;;;;30.50;99.90;;;;;;5092771;28;19908;-72
2023/09/13 13:27:12;;;;;;;;;;;30.50;99.90;;;;;;5092752;28;20250;-73
2023/09/13 13:29:38;;;;;;;;;;;30.60;99.90;;;;;;5093038;28;19915;-72
2023/09/13 13:32:04;;;;;;;;;;;30.40;99.90;;;;;;5077542;28;20139;-72
2023/09/13 13:34:30;;;;;;;;;;;30.50;99.90;;;;;;5096400;28;19908;-72
2023/09/13 13:36:56;;;;;;;;;;;30.60;99.90;;;;;;5096502;28;20272;-71
2023/09/13 13:39:22;;;;;;;;;;;30.60;99.90;;;;;;5095909;28;19920;-72
2023/09/13 13:41:48;;;;;;;;;;;30.50;99.90;;;;;;5096429;28;19908;-72
2023/09/13 13:44:17;;;;;;;;;;;30.30;99.90;;;;;;5096332;28;19973;-72
2023/09/13 13:46:43;;;;;;;;;;;30.10;99.90;;;;;;5095964;28;20347;-71
2023/09/13 13:49:11;;;;;;;;;;;30.30;99.90;;;;;;5095998;28;19908;-72
2023/09/13 13:51:37;;;;;;;;;;;30.40;99.90;;;;;;5095496;28;19908;-72
2023/09/13 13:54:04;;;;;;;;;;;30.50;99.90;;;;;;5095511;28;19908;-71
2023/09/13 13:56:30;;;;;;;;;;;30.50;99.90;;;;;;5095197;28;20379;-72
2023/09/13 13:58:56;;;;;;;;;;;30.40;99.90;;;;;;5095483;28;19943;-71
2023/09/13 14:01:23;;;;;;;;;;;30.20;99.90;;;;;;5095092;28;20006;-71
2023/09/13 14:03:49;;;;;;;;;;;30.20;99.90;;;;;;5095092;28;19908;-71
2023/09/13 14:06:14;;;;;;;;;;;30.40;99.90;;;;;;5095571;28;19940;-71
2023/09/13 14:08:40;;;;;;;;;;;30.20;99.90;;;;;;5095209;28;20001;-71
2023/09/13 14:11:06;;;;;;;;;;;30.20;99.90;;;;;;5095493;28;20264;-71
2023/09/13 14:13:32;;;;;;;;;;;30.20;99.90;;;;;;5095545;28;19908;-71
2023/09/13 14:15:58;;;;;;;;;;;30.20;99.90;;;;;;5095240;28;19916;-72